IBE212 RJCC-RJGG
Flight info
| Callsign | IBE212 |
|---|---|
| Flight time | 1h 31m |
| Altitude | 40000 |
| Route | DALBI Y120 TAPPI Y12 MBE Y121 SWING |
| Aircraft | A346/H-SDE2E3FGHIJ3J4J5M1RWXY/LB1D1 |
Departure
| Time | 2026-05-05 16:43 |
|---|---|
| Airport | New Chitose Airport (RJCC) |
Arrival
| Time | 2026-05-05 18:14 |
|---|---|
| Airport | Chubu Centrair International Airport (RJGG) |
| Time | Latitude | Longitude | Altitude | Speed | Heading |
|---|---|---|---|---|---|
| 2026-05-05 16:21 | 42.79055 | 141.67823 | 76 ft | 0 kts | 172° |
| 2026-05-05 16:31 | 42.79061 | 141.67822 | 68 ft | 3 kts | 173° |
| 2026-05-05 16:32 | 42.79084 | 141.67819 | 65 ft | 3 kts | 177° |
| 2026-05-05 16:32 | 42.79107 | 141.67817 | 65 ft | 3 kts | 174° |
| 2026-05-05 16:32 | 42.79108 | 141.67817 | 65 ft | 0 kts | 174° |
| 2026-05-05 16:32 | 42.79097 | 141.67818 | 65 ft | 3 kts | 175° |
| 2026-05-05 16:33 | 42.79073 | 141.67821 | 67 ft | 3 kts | 176° |
| 2026-05-05 16:33 | 42.79050 | 141.67824 | 68 ft | 3 kts | 173° |
| 2026-05-05 16:33 | 42.79045 | 141.67825 | 68 ft | 0 kts | 172° |
| 2026-05-05 16:35 | 42.79050 | 141.67824 | 68 ft | 4 kts | 172° |
| 2026-05-05 16:35 | 42.79090 | 141.67812 | 65 ft | 6 kts | 150° |
| 2026-05-05 16:36 | 42.79100 | 141.67801 | 65 ft | 0 kts | 108° |
| 2026-05-05 16:38 | 42.79099 | 141.67801 | 76 ft | 0 kts | 105° |
| 2026-05-05 16:38 | 42.79097 | 141.67813 | 67 ft | 2 kts | 99° |
| 2026-05-05 16:39 | 42.79094 | 141.67852 | 71 ft | 6 kts | 97° |
| 2026-05-05 16:39 | 42.79088 | 141.67924 | 70 ft | 9 kts | 97° |
| 2026-05-05 16:39 | 42.79077 | 141.68029 | 76 ft | 12 kts | 109° |
| 2026-05-05 16:39 | 42.79043 | 141.68146 | 71 ft | 14 kts | 91° |
| 2026-05-05 16:40 | 42.78996 | 141.68282 | 65 ft | 18 kts | 136° |
| 2026-05-05 16:40 | 42.78906 | 141.68406 | 68 ft | 20 kts | 109° |
| 2026-05-05 16:40 | 42.78847 | 141.68570 | 69 ft | 20 kts | 128° |
| 2026-05-05 16:40 | 42.78822 | 141.68649 | 70 ft | 0 kts | 93° |
| 2026-05-05 16:41 | 42.78822 | 141.68661 | 74 ft | 2 kts | 88° |
| 2026-05-05 16:41 | 42.78822 | 141.68699 | 75 ft | 6 kts | 88° |
| 2026-05-05 16:42 | 42.78817 | 141.68767 | 75 ft | 9 kts | 106° |
| 2026-05-05 16:42 | 42.78779 | 141.68818 | 66 ft | 0 kts | 167° |
| 2026-05-05 16:42 | 42.78765 | 141.68822 | 72 ft | 17 kts | 167° |
| 2026-05-05 16:42 | 42.78385 | 141.68895 | 68 ft | 92 kts | 173° |
| 2026-05-05 16:43 | 42.77534 | 141.69045 | 68 ft | 153 kts | 172° |
| 2026-05-05 16:43 | 42.76359 | 141.69227 | 452 ft | 176 kts | 173° |
| 2026-05-05 16:43 | 42.75164 | 141.69404 | 1406 ft | 171 kts | 178° |
| 2026-05-05 16:43 | 42.73999 | 141.69626 | 2299 ft | 168 kts | 180° |
| 2026-05-05 16:44 | 42.72831 | 141.69920 | 3010 ft | 174 kts | 181° |
| 2026-05-05 16:44 | 42.71618 | 141.70280 | 3622 ft | 183 kts | 182° |
| 2026-05-05 16:44 | 42.70349 | 141.70629 | 4179 ft | 195 kts | 184° |
| 2026-05-05 16:44 | 42.68973 | 141.70916 | 4732 ft | 204 kts | 188° |
| 2026-05-05 16:45 | 42.67499 | 141.71001 | 5149 ft | 223 kts | 192° |
| 2026-05-05 16:45 | 42.65849 | 141.71106 | 5591 ft | 249 kts | 188° |
| 2026-05-05 16:45 | 42.64170 | 141.70783 | 6309 ft | 240 kts | 214° |
| 2026-05-05 16:45 | 42.62897 | 141.69395 | 7174 ft | 234 kts | 233° |
| 2026-05-05 16:46 | 42.62043 | 141.67556 | 8155 ft | 229 kts | 252° |
| 2026-05-05 16:46 | 42.61775 | 141.65419 | 9101 ft | 233 kts | 272° |
| 2026-05-05 16:46 | 42.61996 | 141.63201 | 9966 ft | 241 kts | 272° |
| 2026-05-05 16:46 | 42.61729 | 141.60916 | 10699 ft | 252 kts | 256° |
| 2026-05-05 16:47 | 42.61223 | 141.58583 | 11278 ft | 270 kts | 256° |
| 2026-05-05 16:47 | 42.60722 | 141.56033 | 11809 ft | 288 kts | 258° |
| 2026-05-05 16:47 | 42.60252 | 141.53289 | 12308 ft | 307 kts | 259° |
| 2026-05-05 16:47 | 42.59799 | 141.50361 | 12777 ft | 326 kts | 260° |
| 2026-05-05 16:48 | 42.59349 | 141.47258 | 13297 ft | 342 kts | 260° |
| 2026-05-05 16:48 | 42.58902 | 141.44048 | 14093 ft | 348 kts | 261° |
| 2026-05-05 16:48 | 42.58456 | 141.40787 | 14925 ft | 352 kts | 261° |
| 2026-05-05 16:48 | 42.58011 | 141.37492 | 15730 ft | 357 kts | 261° |
| 2026-05-05 16:49 | 42.57562 | 141.34153 | 16514 ft | 362 kts | 261° |
| 2026-05-05 16:49 | 42.57068 | 141.30762 | 17308 ft | 368 kts | 258° |
| 2026-05-05 16:49 | 42.56394 | 141.27381 | 18097 ft | 373 kts | 254° |
| 2026-05-05 16:49 | 42.55526 | 141.24019 | 18655 ft | 379 kts | 250° |
| 2026-05-05 16:50 | 42.54506 | 141.20754 | 18912 ft | 382 kts | 249° |
| 2026-05-05 16:50 | 42.53436 | 141.17447 | 18935 ft | 382 kts | 248° |
| 2026-05-05 16:50 | 42.52360 | 141.14142 | 18937 ft | 382 kts | 248° |
| 2026-05-05 16:50 | 42.51214 | 141.10883 | 18939 ft | 383 kts | 244° |
| 2026-05-05 16:51 | 42.49805 | 141.07799 | 18952 ft | 385 kts | 238° |
| 2026-05-05 16:51 | 42.48139 | 141.04929 | 18952 ft | 388 kts | 232° |
| 2026-05-05 16:51 | 42.46260 | 141.02274 | 18956 ft | 389 kts | 229° |
| 2026-05-05 16:51 | 42.44345 | 140.99689 | 18949 ft | 388 kts | 229° |
| 2026-05-05 16:52 | 42.42448 | 140.97146 | 18948 ft | 389 kts | 229° |
| 2026-05-05 16:52 | 42.40525 | 140.94572 | 18951 ft | 389 kts | 229° |
| 2026-05-05 16:52 | 42.38595 | 140.91993 | 18951 ft | 389 kts | 229° |
| 2026-05-05 16:52 | 42.36669 | 140.89422 | 18954 ft | 389 kts | 229° |
| 2026-05-05 16:53 | 42.34744 | 140.86853 | 18957 ft | 389 kts | 229° |
| 2026-05-05 16:53 | 42.32815 | 140.84282 | 18955 ft | 389 kts | 229° |
| 2026-05-05 16:53 | 42.30886 | 140.81711 | 18940 ft | 391 kts | 229° |
| 2026-05-05 16:53 | 42.28944 | 140.79126 | 18944 ft | 391 kts | 229° |
| 2026-05-05 16:54 | 42.27002 | 140.76544 | 18946 ft | 392 kts | 229° |
| 2026-05-05 16:54 | 42.25059 | 140.73965 | 18948 ft | 392 kts | 229° |
| 2026-05-05 16:54 | 42.23114 | 140.71384 | 18948 ft | 392 kts | 229° |
| 2026-05-05 16:54 | 42.21192 | 140.68836 | 18951 ft | 393 kts | 229° |
| 2026-05-05 16:55 | 42.19217 | 140.66217 | 19227 ft | 402 kts | 229° |
| 2026-05-05 16:55 | 42.17227 | 140.63581 | 20057 ft | 400 kts | 228° |
| 2026-05-05 16:55 | 42.15236 | 140.60952 | 20904 ft | 401 kts | 229° |
| 2026-05-05 16:55 | 42.13231 | 140.58310 | 21649 ft | 403 kts | 229° |
| 2026-05-05 16:56 | 42.11223 | 140.55664 | 22456 ft | 405 kts | 227° |
| 2026-05-05 16:56 | 42.09003 | 140.53245 | 23074 ft | 415 kts | 219° |
| 2026-05-05 16:56 | 42.06467 | 140.51306 | 23848 ft | 421 kts | 211° |
| 2026-05-05 16:56 | 42.03709 | 140.49866 | 24448 ft | 430 kts | 204° |
| 2026-05-05 16:57 | 42.00814 | 140.48735 | 24973 ft | 435 kts | 202° |
| 2026-05-05 16:57 | 41.97880 | 140.47623 | 25459 ft | 441 kts | 200° |
| 2026-05-05 16:57 | 41.94899 | 140.46507 | 25870 ft | 448 kts | 200° |
| 2026-05-05 16:57 | 41.91882 | 140.45388 | 26370 ft | 452 kts | 200° |
| 2026-05-05 16:58 | 41.88874 | 140.44275 | 26900 ft | 455 kts | 200° |
| 2026-05-05 16:58 | 41.85805 | 140.43137 | 27424 ft | 459 kts | 199° |
| 2026-05-05 16:58 | 41.82714 | 140.41990 | 27928 ft | 463 kts | 199° |
| 2026-05-05 16:58 | 41.79597 | 140.40832 | 28441 ft | 467 kts | 199° |
| 2026-05-05 16:59 | 41.76467 | 140.39670 | 29094 ft | 467 kts | 199° |
| 2026-05-05 16:59 | 41.73343 | 140.38512 | 29924 ft | 463 kts | 199° |
| 2026-05-05 16:59 | 41.70246 | 140.37365 | 30658 ft | 460 kts | 199° |
| 2026-05-05 16:59 | 41.67163 | 140.36223 | 31327 ft | 458 kts | 199° |
| 2026-05-05 17:00 | 41.64093 | 140.35087 | 31987 ft | 456 kts | 199° |
| 2026-05-05 17:00 | 41.61039 | 140.33958 | 32660 ft | 454 kts | 199° |
| 2026-05-05 17:00 | 41.58002 | 140.32836 | 33298 ft | 453 kts | 199° |
| 2026-05-05 17:00 | 41.54970 | 140.31715 | 33904 ft | 452 kts | 199° |
| 2026-05-05 17:01 | 41.51942 | 140.30598 | 34493 ft | 449 kts | 199° |
| 2026-05-05 17:01 | 41.48938 | 140.29496 | 35063 ft | 447 kts | 199° |
| 2026-05-05 17:01 | 41.45985 | 140.28414 | 35599 ft | 445 kts | 200° |
| 2026-05-05 17:01 | 41.43008 | 140.27323 | 36131 ft | 443 kts | 200° |
| 2026-05-05 17:02 | 41.40042 | 140.26235 | 36635 ft | 441 kts | 200° |
| 2026-05-05 17:02 | 41.37080 | 140.25148 | 37126 ft | 440 kts | 200° |
| 2026-05-05 17:02 | 41.34135 | 140.24069 | 37583 ft | 438 kts | 201° |
| 2026-05-05 17:02 | 41.31198 | 140.22995 | 38011 ft | 437 kts | 201° |
| 2026-05-05 17:03 | 41.28265 | 140.21920 | 38421 ft | 436 kts | 201° |
| 2026-05-05 17:03 | 41.25339 | 140.20847 | 38772 ft | 436 kts | 202° |
| 2026-05-05 17:03 | 41.22414 | 140.19775 | 39012 ft | 437 kts | 202° |
| 2026-05-05 17:03 | 41.19475 | 140.18698 | 39211 ft | 439 kts | 202° |
| 2026-05-05 17:04 | 41.16529 | 140.17622 | 39410 ft | 440 kts | 202° |
| 2026-05-05 17:04 | 41.13606 | 140.16556 | 39583 ft | 441 kts | 201° |
| 2026-05-05 17:04 | 41.10591 | 140.15487 | 39771 ft | 443 kts | 201° |
| 2026-05-05 17:04 | 41.07601 | 140.14454 | 39948 ft | 445 kts | 201° |
| 2026-05-05 17:05 | 41.04603 | 140.13421 | 40100 ft | 446 kts | 201° |
| 2026-05-05 17:05 | 41.01623 | 140.12394 | 40108 ft | 447 kts | 201° |
| 2026-05-05 17:05 | 40.95590 | 140.10314 | 40121 ft | 448 kts | 201° |
| 2026-05-05 17:06 | 40.89560 | 140.08237 | 40122 ft | 447 kts | 201° |
| 2026-05-05 17:06 | 40.83546 | 140.06170 | 40117 ft | 446 kts | 201° |
| 2026-05-05 17:07 | 40.77540 | 140.04107 | 40130 ft | 445 kts | 201° |
| 2026-05-05 17:07 | 40.71580 | 140.02060 | 40130 ft | 445 kts | 201° |
| 2026-05-05 17:08 | 40.65589 | 140.00007 | 40134 ft | 444 kts | 201° |
| 2026-05-05 17:08 | 40.59609 | 139.97965 | 40146 ft | 444 kts | 201° |
| 2026-05-05 17:09 | 40.53625 | 139.95927 | 40153 ft | 444 kts | 201° |
| 2026-05-05 17:09 | 40.47651 | 139.93890 | 40153 ft | 443 kts | 201° |
| 2026-05-05 17:10 | 40.42689 | 139.92204 | 40161 ft | 443 kts | 201° |
| 2026-05-05 17:10 | 40.36714 | 139.90179 | 40167 ft | 443 kts | 201° |
| 2026-05-05 17:11 | 40.30754 | 139.88169 | 40171 ft | 442 kts | 202° |
| 2026-05-05 17:11 | 40.24804 | 139.86157 | 40170 ft | 441 kts | 202° |
| 2026-05-05 17:12 | 40.18854 | 139.84150 | 40176 ft | 441 kts | 202° |
| 2026-05-05 17:12 | 40.12907 | 139.82149 | 40175 ft | 441 kts | 202° |
| 2026-05-05 17:13 | 40.06957 | 139.80153 | 40170 ft | 440 kts | 202° |
| 2026-05-05 17:13 | 40.01063 | 139.78176 | 40180 ft | 440 kts | 202° |
| 2026-05-05 17:14 | 39.95134 | 139.76192 | 40188 ft | 440 kts | 202° |
| 2026-05-05 17:14 | 39.89208 | 139.74213 | 40173 ft | 440 kts | 202° |
| 2026-05-05 17:15 | 39.83271 | 139.72238 | 40169 ft | 439 kts | 202° |
| 2026-05-05 17:15 | 39.77352 | 139.70268 | 40182 ft | 439 kts | 202° |
| 2026-05-05 17:16 | 39.71442 | 139.68305 | 40182 ft | 439 kts | 202° |
| 2026-05-05 17:16 | 39.65522 | 139.66340 | 40184 ft | 439 kts | 202° |
| 2026-05-05 17:17 | 39.59643 | 139.64397 | 40177 ft | 438 kts | 202° |
| 2026-05-05 17:17 | 39.53737 | 139.62447 | 40184 ft | 438 kts | 202° |
| 2026-05-05 17:18 | 39.47829 | 139.60498 | 40170 ft | 438 kts | 202° |
| 2026-05-05 17:18 | 39.41923 | 139.58555 | 40181 ft | 437 kts | 202° |
| 2026-05-05 17:19 | 39.36010 | 139.56612 | 40183 ft | 437 kts | 202° |
| 2026-05-05 17:19 | 39.30109 | 139.54676 | 40183 ft | 437 kts | 202° |
| 2026-05-05 17:20 | 39.24242 | 139.52755 | 40184 ft | 437 kts | 202° |
| 2026-05-05 17:20 | 39.18342 | 139.50827 | 40183 ft | 437 kts | 202° |
| 2026-05-05 17:21 | 39.12441 | 139.48904 | 40182 ft | 437 kts | 202° |
| 2026-05-05 17:22 | 39.03608 | 139.46026 | 40188 ft | 437 kts | 202° |
| 2026-05-05 17:22 | 38.97712 | 139.44110 | 40191 ft | 437 kts | 202° |
| 2026-05-05 17:23 | 38.91815 | 139.42200 | 40179 ft | 436 kts | 202° |
| 2026-05-05 17:23 | 38.85971 | 139.40310 | 40186 ft | 435 kts | 202° |
| 2026-05-05 17:24 | 38.80097 | 139.38409 | 40191 ft | 435 kts | 202° |
| 2026-05-05 17:24 | 38.74222 | 139.36512 | 40188 ft | 435 kts | 202° |
| 2026-05-05 17:25 | 38.68346 | 139.34623 | 40179 ft | 434 kts | 202° |
| 2026-05-05 17:25 | 38.62490 | 139.32739 | 40197 ft | 433 kts | 202° |
| 2026-05-05 17:26 | 38.56640 | 139.30859 | 40195 ft | 433 kts | 202° |
| 2026-05-05 17:26 | 38.50833 | 139.28997 | 40199 ft | 433 kts | 202° |
| 2026-05-05 17:27 | 38.44985 | 139.27130 | 40183 ft | 431 kts | 203° |
| 2026-05-05 17:27 | 38.39163 | 139.25269 | 40197 ft | 431 kts | 203° |
| 2026-05-05 17:28 | 38.33341 | 139.23411 | 40198 ft | 431 kts | 203° |
| 2026-05-05 17:28 | 38.27528 | 139.21560 | 40189 ft | 430 kts | 203° |
| 2026-05-05 17:29 | 38.21716 | 139.19716 | 40193 ft | 429 kts | 203° |
| 2026-05-05 17:29 | 38.15971 | 139.17891 | 40202 ft | 428 kts | 203° |
| 2026-05-05 17:30 | 38.10181 | 139.16055 | 40197 ft | 428 kts | 203° |
| 2026-05-05 17:30 | 38.04394 | 139.14225 | 40194 ft | 428 kts | 203° |
| 2026-05-05 17:31 | 37.98700 | 139.12176 | 40199 ft | 421 kts | 207° |
| 2026-05-05 17:31 | 37.93280 | 139.09504 | 40153 ft | 415 kts | 212° |
| 2026-05-05 17:32 | 37.88157 | 139.06262 | 40178 ft | 409 kts | 216° |
| 2026-05-05 17:32 | 37.83168 | 139.02887 | 40183 ft | 409 kts | 216° |
| 2026-05-05 17:33 | 37.78138 | 138.99491 | 40173 ft | 409 kts | 216° |
| 2026-05-05 17:33 | 37.73128 | 138.96106 | 40191 ft | 408 kts | 216° |
| 2026-05-05 17:34 | 37.68122 | 138.92722 | 40204 ft | 408 kts | 216° |
| 2026-05-05 17:34 | 37.63115 | 138.89343 | 40207 ft | 407 kts | 216° |
| 2026-05-05 17:35 | 37.58144 | 138.85992 | 40200 ft | 407 kts | 216° |
| 2026-05-05 17:35 | 37.53141 | 138.82625 | 40206 ft | 407 kts | 216° |
| 2026-05-05 17:36 | 37.48144 | 138.79270 | 40203 ft | 405 kts | 216° |
| 2026-05-05 17:36 | 37.43164 | 138.75927 | 40212 ft | 405 kts | 216° |
| 2026-05-05 17:37 | 37.38219 | 138.72613 | 40215 ft | 404 kts | 216° |
| 2026-05-05 17:37 | 37.33244 | 138.69284 | 40217 ft | 404 kts | 216° |
| 2026-05-05 17:38 | 37.28275 | 138.65965 | 40205 ft | 404 kts | 216° |
| 2026-05-05 17:38 | 37.23300 | 138.62650 | 40217 ft | 404 kts | 216° |
| 2026-05-05 17:39 | 37.18330 | 138.59338 | 40223 ft | 404 kts | 216° |
| 2026-05-05 17:39 | 37.13366 | 138.56037 | 40227 ft | 404 kts | 216° |
| 2026-05-05 17:40 | 37.08430 | 138.52759 | 40230 ft | 403 kts | 216° |
| 2026-05-05 17:40 | 37.03464 | 138.49465 | 40250 ft | 403 kts | 216° |
| 2026-05-05 17:41 | 36.98498 | 138.46178 | 40248 ft | 403 kts | 216° |
| 2026-05-05 17:41 | 36.93535 | 138.42897 | 40252 ft | 403 kts | 216° |
| 2026-05-05 17:42 | 36.88605 | 138.39644 | 40254 ft | 404 kts | 216° |
| 2026-05-05 17:42 | 36.83632 | 138.36367 | 40248 ft | 404 kts | 216° |
| 2026-05-05 17:43 | 36.78664 | 138.33096 | 40260 ft | 403 kts | 216° |
| 2026-05-05 17:43 | 36.73696 | 138.29825 | 40252 ft | 403 kts | 216° |
| 2026-05-05 17:44 | 36.68751 | 138.26577 | 40261 ft | 401 kts | 216° |
| 2026-05-05 17:44 | 36.63785 | 138.23317 | 40279 ft | 401 kts | 216° |
| 2026-05-05 17:45 | 36.58881 | 138.20102 | 40280 ft | 401 kts | 216° |
| 2026-05-05 17:45 | 36.53929 | 138.16863 | 40283 ft | 402 kts | 216° |
| 2026-05-05 17:46 | 36.48978 | 138.13630 | 40243 ft | 402 kts | 216° |
| 2026-05-05 17:46 | 36.44037 | 138.10411 | 40282 ft | 399 kts | 216° |
| 2026-05-05 17:47 | 36.39115 | 138.07207 | 39994 ft | 398 kts | 216° |
| 2026-05-05 17:47 | 36.36670 | 138.05621 | 39752 ft | 394 kts | 216° |
| 2026-05-05 17:47 | 36.34250 | 138.04052 | 39513 ft | 391 kts | 216° |
| 2026-05-05 17:47 | 36.31851 | 138.02497 | 39293 ft | 387 kts | 216° |
| 2026-05-05 17:48 | 36.29467 | 138.00954 | 39058 ft | 384 kts | 216° |
| 2026-05-05 17:48 | 36.27101 | 137.99419 | 38807 ft | 384 kts | 216° |
| 2026-05-05 17:48 | 36.24760 | 137.97901 | 38543 ft | 384 kts | 216° |
| 2026-05-05 17:48 | 36.22392 | 137.96369 | 38247 ft | 384 kts | 216° |
| 2026-05-05 17:49 | 36.20023 | 137.94837 | 37977 ft | 383 kts | 216° |
| 2026-05-05 17:49 | 36.17679 | 137.93282 | 37698 ft | 381 kts | 218° |
| 2026-05-05 17:49 | 36.15403 | 137.91613 | 37379 ft | 379 kts | 220° |
| 2026-05-05 17:49 | 36.13202 | 137.89837 | 37001 ft | 376 kts | 222° |
| 2026-05-05 17:50 | 36.11065 | 137.87978 | 36518 ft | 376 kts | 223° |
| 2026-05-05 17:50 | 36.08922 | 137.86123 | 35993 ft | 376 kts | 223° |
| 2026-05-05 17:50 | 36.06774 | 137.84267 | 35385 ft | 378 kts | 223° |
| 2026-05-05 17:50 | 36.04615 | 137.82393 | 34754 ft | 380 kts | 223° |
| 2026-05-05 17:51 | 36.02444 | 137.80514 | 34046 ft | 381 kts | 223° |
| 2026-05-05 17:51 | 36.00276 | 137.78633 | 33329 ft | 381 kts | 223° |
| 2026-05-05 17:51 | 35.98106 | 137.76754 | 32628 ft | 380 kts | 223° |
| 2026-05-05 17:51 | 35.95940 | 137.74877 | 31939 ft | 381 kts | 223° |
| 2026-05-05 17:52 | 35.93762 | 137.72989 | 31241 ft | 383 kts | 223° |
| 2026-05-05 17:52 | 35.91580 | 137.71096 | 30526 ft | 384 kts | 223° |
| 2026-05-05 17:52 | 35.89382 | 137.69185 | 29752 ft | 389 kts | 222° |
| 2026-05-05 17:52 | 35.87156 | 137.67249 | 28980 ft | 392 kts | 221° |
| 2026-05-05 17:53 | 35.84915 | 137.65319 | 28255 ft | 393 kts | 221° |
| 2026-05-05 17:53 | 35.82676 | 137.63391 | 27520 ft | 393 kts | 220° |
| 2026-05-05 17:53 | 35.80434 | 137.61462 | 27088 ft | 392 kts | 220° |
| 2026-05-05 17:53 | 35.78234 | 137.59567 | 26630 ft | 389 kts | 219° |
| 2026-05-05 17:54 | 35.76021 | 137.57660 | 26191 ft | 386 kts | 219° |
| 2026-05-05 17:54 | 35.73832 | 137.55776 | 25722 ft | 383 kts | 219° |
| 2026-05-05 17:54 | 35.71644 | 137.53892 | 25185 ft | 383 kts | 218° |
| 2026-05-05 17:54 | 35.69456 | 137.52006 | 24620 ft | 384 kts | 218° |
| 2026-05-05 17:55 | 35.67262 | 137.50111 | 24049 ft | 386 kts | 217° |
| 2026-05-05 17:55 | 35.65054 | 137.48207 | 23348 ft | 388 kts | 217° |
| 2026-05-05 17:55 | 35.62845 | 137.46307 | 22799 ft | 386 kts | 217° |
| 2026-05-05 17:55 | 35.60646 | 137.44420 | 22320 ft | 383 kts | 216° |
| 2026-05-05 17:56 | 35.58472 | 137.42554 | 21853 ft | 380 kts | 216° |
| 2026-05-05 17:56 | 35.56308 | 137.40694 | 21384 ft | 378 kts | 216° |
| 2026-05-05 17:56 | 35.54150 | 137.38841 | 20901 ft | 377 kts | 216° |
| 2026-05-05 17:56 | 35.52024 | 137.37017 | 20411 ft | 376 kts | 216° |
| 2026-05-05 17:57 | 35.49879 | 137.35175 | 19929 ft | 377 kts | 216° |
| 2026-05-05 17:57 | 35.47727 | 137.33333 | 19428 ft | 376 kts | 215° |
| 2026-05-05 17:57 | 35.45581 | 137.31494 | 18940 ft | 376 kts | 215° |
| 2026-05-05 17:57 | 35.43430 | 137.29653 | 18427 ft | 376 kts | 215° |
| 2026-05-05 17:58 | 35.41262 | 137.27856 | 17885 ft | 375 kts | 211° |
| 2026-05-05 17:58 | 35.38936 | 137.26432 | 17424 ft | 373 kts | 203° |
| 2026-05-05 17:58 | 35.36477 | 137.25461 | 16983 ft | 371 kts | 194° |
| 2026-05-05 17:58 | 35.34797 | 137.25061 | 16709 ft | 369 kts | 190° |
| 2026-05-05 17:59 | 35.32268 | 137.24586 | 16275 ft | 367 kts | 189° |
| 2026-05-05 17:59 | 35.29752 | 137.24143 | 15853 ft | 364 kts | 189° |
| 2026-05-05 17:59 | 35.27254 | 137.23706 | 15432 ft | 362 kts | 189° |
| 2026-05-05 17:59 | 35.24769 | 137.23269 | 15008 ft | 360 kts | 189° |
| 2026-05-05 18:00 | 35.22299 | 137.22833 | 14593 ft | 357 kts | 189° |
| 2026-05-05 18:00 | 35.19842 | 137.22398 | 14175 ft | 355 kts | 189° |
| 2026-05-05 18:00 | 35.17400 | 137.21964 | 13712 ft | 353 kts | 189° |
| 2026-05-05 18:00 | 35.14979 | 137.21533 | 13251 ft | 350 kts | 189° |
| 2026-05-05 18:01 | 35.12576 | 137.21106 | 12801 ft | 348 kts | 188° |
| 2026-05-05 18:01 | 35.10182 | 137.20680 | 12353 ft | 346 kts | 188° |
| 2026-05-05 18:01 | 35.07805 | 137.20258 | 11916 ft | 344 kts | 188° |
| 2026-05-05 18:01 | 35.05441 | 137.19838 | 11467 ft | 343 kts | 188° |
| 2026-05-05 18:02 | 35.03087 | 137.19420 | 11030 ft | 341 kts | 188° |
| 2026-05-05 18:02 | 35.00779 | 137.19011 | 10851 ft | 328 kts | 188° |
| 2026-05-05 18:02 | 34.98561 | 137.18618 | 10699 ft | 316 kts | 188° |
| 2026-05-05 18:02 | 34.96430 | 137.18241 | 10570 ft | 304 kts | 188° |
| 2026-05-05 18:03 | 34.94403 | 137.17882 | 10445 ft | 292 kts | 188° |
| 2026-05-05 18:03 | 34.92433 | 137.17534 | 10327 ft | 281 kts | 188° |
| 2026-05-05 18:03 | 34.90532 | 137.17198 | 10231 ft | 270 kts | 188° |
| 2026-05-05 18:03 | 34.88705 | 137.16875 | 10144 ft | 262 kts | 188° |
| 2026-05-05 18:04 | 34.86914 | 137.16558 | 10040 ft | 258 kts | 188° |
| 2026-05-05 18:04 | 34.85137 | 137.16193 | 9776 ft | 259 kts | 192° |
| 2026-05-05 18:04 | 34.83405 | 137.15597 | 9450 ft | 259 kts | 198° |
| 2026-05-05 18:04 | 34.81731 | 137.14794 | 9154 ft | 258 kts | 201° |
| 2026-05-05 18:05 | 34.80042 | 137.13930 | 8998 ft | 268 kts | 201° |
| 2026-05-05 18:05 | 34.78316 | 137.13043 | 8998 ft | 270 kts | 201° |
| 2026-05-05 18:05 | 34.76582 | 137.12153 | 8994 ft | 270 kts | 201° |
| 2026-05-05 18:05 | 34.74846 | 137.11264 | 8994 ft | 271 kts | 201° |
| 2026-05-05 18:06 | 34.73109 | 137.10375 | 8994 ft | 271 kts | 201° |
| 2026-05-05 18:06 | 34.71955 | 137.09784 | 9000 ft | 271 kts | 201° |
| 2026-05-05 18:06 | 34.69643 | 137.08563 | 8991 ft | 272 kts | 207° |
| 2026-05-05 18:06 | 34.68125 | 137.07178 | 8991 ft | 275 kts | 223° |
| 2026-05-05 18:07 | 34.66895 | 137.05388 | 8993 ft | 276 kts | 229° |
| 2026-05-05 18:07 | 34.65728 | 137.03537 | 8991 ft | 276 kts | 230° |
| 2026-05-05 18:07 | 34.64562 | 137.01676 | 8996 ft | 276 kts | 230° |
| 2026-05-05 18:07 | 34.63410 | 136.99848 | 8995 ft | 276 kts | 230° |
| 2026-05-05 18:08 | 34.62239 | 136.98000 | 8999 ft | 276 kts | 229° |
| 2026-05-05 18:08 | 34.61074 | 136.96157 | 8872 ft | 272 kts | 231° |
| 2026-05-05 18:08 | 34.60181 | 136.94134 | 8105 ft | 273 kts | 248° |
| 2026-05-05 18:08 | 34.59709 | 136.91880 | 7141 ft | 277 kts | 256° |
| 2026-05-05 18:09 | 34.59769 | 136.89529 | 6415 ft | 282 kts | 285° |
| 2026-05-05 18:09 | 34.60728 | 136.87530 | 6134 ft | 270 kts | 315° |
| 2026-05-05 18:09 | 34.62241 | 136.86275 | 5877 ft | 255 kts | 339° |
| 2026-05-05 18:09 | 34.63878 | 136.85694 | 5582 ft | 235 kts | 349° |
| 2026-05-05 18:10 | 34.65440 | 136.85368 | 5243 ft | 221 kts | 352° |
| 2026-05-05 18:10 | 34.66918 | 136.85081 | 4836 ft | 212 kts | 352° |
| 2026-05-05 18:10 | 34.68382 | 136.84769 | 4187 ft | 216 kts | 351° |
| 2026-05-05 18:10 | 34.69909 | 136.84413 | 3306 ft | 229 kts | 350° |
| 2026-05-05 18:11 | 34.71449 | 136.84032 | 2771 ft | 224 kts | 351° |
| 2026-05-05 18:11 | 34.72943 | 136.83659 | 2277 ft | 216 kts | 352° |
| 2026-05-05 18:11 | 34.74375 | 136.83306 | 2007 ft | 201 kts | 353° |
| 2026-05-05 18:11 | 34.75698 | 136.82983 | 1765 ft | 188 kts | 353° |
| 2026-05-05 18:12 | 34.76945 | 136.82683 | 1494 ft | 177 kts | 353° |
| 2026-05-05 18:12 | 34.78119 | 136.82401 | 1273 ft | 167 kts | 353° |
| 2026-05-05 18:12 | 34.79228 | 136.82133 | 1050 ft | 160 kts | 353° |
| 2026-05-05 18:12 | 34.80307 | 136.81875 | 851 ft | 156 kts | 351° |
| 2026-05-05 18:13 | 34.81351 | 136.81624 | 656 ft | 150 kts | 349° |
| 2026-05-05 18:13 | 34.82361 | 136.81379 | 454 ft | 146 kts | 349° |
| 2026-05-05 18:13 | 34.83357 | 136.81138 | 252 ft | 144 kts | 348° |
| 2026-05-05 18:13 | 34.84337 | 136.80901 | 58 ft | 143 kts | 348° |
| 2026-05-05 18:14 | 34.85183 | 136.80695 | 34 ft | 97 kts | 349° |
| 2026-05-05 18:14 | 34.85678 | 136.80574 | 31 ft | 56 kts | 349° |
| 2026-05-05 18:14 | 34.86011 | 136.80502 | 32 ft | 42 kts | 355° |
| 2026-05-05 18:14 | 34.86222 | 136.80526 | 35 ft | 22 kts | 17° |
| 2026-05-05 18:15 | 34.86275 | 136.80546 | 36 ft | 0 kts | 17° |
| 2026-05-05 18:16 | 34.86280 | 136.80548 | 36 ft | 2 kts | 17° |
| 2026-05-05 18:16 | 34.86306 | 136.80558 | 36 ft | 6 kts | 17° |
| 2026-05-05 18:17 | 34.86356 | 136.80578 | 36 ft | 9 kts | 19° |
| 2026-05-05 18:17 | 34.86421 | 136.80621 | 36 ft | 12 kts | 44° |
| 2026-05-05 18:17 | 34.86433 | 136.80716 | 37 ft | 14 kts | 137° |
| 2026-05-05 18:17 | 34.86337 | 136.80774 | 37 ft | 17 kts | 167° |
| 2026-05-05 18:18 | 34.86205 | 136.80808 | 37 ft | 21 kts | 168° |
| 2026-05-05 18:18 | 34.86067 | 136.80843 | 37 ft | 18 kts | 168° |
| 2026-05-05 18:18 | 34.85968 | 136.80868 | 37 ft | 9 kts | 169° |
| 2026-05-05 18:18 | 34.85893 | 136.80885 | 37 ft | 13 kts | 169° |
| 2026-05-05 18:19 | 34.85833 | 136.80899 | 37 ft | 10 kts | 169° |
| 2026-05-05 18:19 | 34.85752 | 136.80918 | 37 ft | 14 kts | 169° |
| 2026-05-05 18:19 | 34.85643 | 136.80944 | 37 ft | 18 kts | 169° |
| 2026-05-05 18:19 | 34.85506 | 136.80975 | 37 ft | 22 kts | 169° |
| 2026-05-05 18:20 | 34.85362 | 136.81015 | 37 ft | 18 kts | 152° |
| 2026-05-05 18:20 | 34.85332 | 136.81131 | 37 ft | 16 kts | 82° |
| 2026-05-05 18:20 | 34.85348 | 136.81268 | 37 ft | 15 kts | 91° |
| 2026-05-05 18:20 | 34.85331 | 136.81364 | 37 ft | 9 kts | 90° |
| 2026-05-05 18:21 | 34.85337 | 136.81423 | 37 ft | 5 kts | 82° |
| 2026-05-05 18:21 | 34.85341 | 136.81459 | 37 ft | 0 kts | 81° |